This is the latest recevied weather packets stored in our database for station/object AA3CS-1. If no packets are shown the sender has not sent any weather packets the latest 10 day(s).
| Time | Temp. | Humidity | Pressure | Rain* | Wind** | Luminosity | Snow |
|---|---|---|---|---|---|---|---|
| 1777971616 | 17.22° C | 61% | 1005.5 hPa | 0 mm | - | 0 W/m² | - |
| 1777970716 | 16.67° C | 64% | 1005.3 hPa | 0 mm | - | 0 W/m² | - |
| 1777968016 | 17.22° C | 62% | 1005.3 hPa | 0 mm | - | 0 W/m² | - |
| 1777967437 | 17.22° C | 63% | 1005.3 hPa | 0 mm | - | 0 W/m² | - |
| 1777966816 | 17.22° C | 63% | 1005.1 hPa | 0 mm | - | 0 W/m² | - |
| 1777966216 | 17.22° C | 63% | 1005 hPa | 0 mm | - | 0 W/m² | - |
| 1777964116 | 17.22° C | 63% | 1005 hPa | 0 mm | - | 0 W/m² | - |
| 1777963217 | 17.22° C | 64% | 1005.2 hPa | 0 mm | - | 0 W/m² | - |
| 1777962316 | 17.22° C | 64% | 1005.2 hPa | 0 mm | - | 0 W/m² | - |
| 1777960216 | 16.67° C | 66% | 1005.4 hPa | 0 mm | - | 0 W/m² | - |
| 1777959036 | 16.67° C | 66% | 1005.7 hPa | 0 mm | - | 0 W/m² | - |
| 1777956916 | 16.67° C | 67% | 1005.9 hPa | 0 mm | - | 0 W/m² | - |
| 1777956316 | 16.67° C | 67% | 1006 hPa | 0 mm | - | 0 W/m² | - |
| 1777955116 | 16.67° C | 67% | 1006.1 hPa | 0 mm | - | 0 W/m² | - |
| 1777953316 | 16.67° C | 67% | 1006.1 hPa | 0 mm | - | 0 W/m² | - |
| 1777953037 | 16.67° C | 67% | 1006.1 hPa | 0 mm | - | 0 W/m² | - |
| 1777951217 | 16.11° C | 67% | 1006.1 hPa | 0 mm | - | 0 W/m² | - |
| 1777948516 | 16.67° C | 66% | 1006.2 hPa | 0 mm | - | 0 W/m² | - |
| 1777947016 | 16.67° C | 65% | 1006.1 hPa | 0 mm | - | 0 W/m² | - |
| 1777945816 | 17.22° C | 63% | 1006.2 hPa | 0 mm | - | 0 W/m² | - |
| 1777945216 | 17.22° C | 62% | 1006.2 hPa | 0 mm | - | 0 W/m² | - |
| 1777943716 | 17.78° C | 59% | 1006.1 hPa | 0 mm | - | 0 W/m² | - |
| 1777941316 | 18.89° C | 56% | 1005.7 hPa | 0 mm | - | 0 W/m² | - |
| 1777939516 | 19.44° C | 55% | 1005.1 hPa | 0 mm | - | 7 W/m² | - |
| 1777938316 | 20° C | 53% | 1004.7 hPa | 0 mm | - | 33 W/m² | - |
* Rain latest hour (hover to see other rain measurements)
** Current wind speed in m/s (hover to see current wind gust speed)